Pilot Boat Vega — VEGA — position and weather

sailwx.info

Track history (hours):
 
Tides and Currents Weather Stations Pressure Air Temp Water Temp Dewpoint Dewpoint Depression Visibility Wind Speed Wind Dir Waves Ship Positions

Pilot Boat Vega

Last reported at 2017-Oct-28 00:39 UTC. Time now 2017-Nov-18 01:11 UTC.
Position N 33°45' W 118°13'.
Warning: this ship's position is 21 days out of date.

Length 16 m; draft 1.5 m.

Type: Pilot. MMSI: 338037843.

Date/timePositionNaut miles runAvg speedWind from/ knotsBaromVisibWave heightAir tempDewpointWater temp
2017-Oct-28 00:39N 33°45' W 118°13'0 0.0
2017-Oct-27 21:42N 33°45' W 118°13'0 0.0
2017-Oct-27 21:31N 33°45' W 118°13'0 0.0
2017-Oct-27 20:59N 33°45' W 118°13'0 0.0
2017-Oct-27 20:29N 33°45' W 118°13'0 0.0
2017-Oct-27 19:52N 33°45' W 118°13'0 0.0
2017-Oct-27 19:30N 33°45' W 118°13'0 0.0
2017-Oct-27 19:00N 33°45' W 118°13'0 0.0
2017-Oct-27 18:30N 33°45' W 118°13'0 0.0
2017-Oct-27 17:52N 33°45' W 118°13'0 0.0
2017-Oct-27 17:30N 33°45' W 118°13'0 0.0
2017-Oct-27 16:59N 33°45' W 118°13'3 6.4
2017-Oct-27 16:29N 33°42' W 118°11'3 6.8
2017-Oct-27 16:00N 33°45' W 118°13'3 3.6
2017-Oct-27 15:17N 33°43' W 118°11'0 1.4
2017-Oct-27 15:01N 33°43' W 118°11'2 4.9
2017-Oct-27 14:30N 33°45' W 118°13'0 0.0
2017-Oct-27 00:46N 33°45' W 118°13'0 0.0
2017-Oct-27 00:27N 33°45' W 118°13'0 0.0
2017-Oct-26 23:57N 33°45' W 118°13'0 0.0
2017-Oct-26 22:59N 33°45' W 118°13'0 0.0
2017-Oct-26 22:23N 33°45' W 118°13'0 0.0
2017-Oct-26 22:00N 33°45' W 118°13'0 0.0
2017-Oct-26 21:30N 33°45' W 118°13'0 0.0
2017-Oct-26 20:59N 33°45' W 118°13'0 0.0
2017-Oct-26 20:30N 33°45' W 118°13'0 0.0
2017-Oct-26 20:00N 33°45' W 118°13'2 4.3
2017-Oct-26 19:30N 33°43' W 118°11'1 2.1
2017-Oct-26 18:57N 33°43' W 118°12'3 6.2
2017-Oct-26 18:31N 33°43' W 118°16'1 1.7
2017-Oct-26 18:00N 33°44' W 118°16'3 4.0
2017-Oct-26 17:19N 33°45' W 118°13'0 0.0
2017-Oct-26 17:00N 33°45' W 118°13'0 0.0
2017-Oct-26 14:49N 33°45' W 118°13'0 0.0
2017-Oct-26 14:29N 33°45' W 118°13'0 0.0
2017-Oct-26 01:17N 33°45' W 118°13'0 0.0
2017-Oct-26 00:54N 33°45' W 118°13'0 0.0
2017-Oct-26 00:31N 33°45' W 118°13'0 0.0
2017-Oct-26 00:01N 33°45' W 118°13'0 0.0
2017-Oct-25 23:31N 33°45' W 118°13'0 0.0
2017-Oct-25 23:01N 33°45' W 118°13'0 0.0
2017-Oct-25 22:31N 33°45' W 118°13'0 0.0
2017-Oct-25 22:00N 33°45' W 118°13'0 0.0
2017-Oct-25 21:31N 33°45' W 118°13'0 0.0
2017-Oct-25 20:39N 33°45' W 118°13'0 0.0
2017-Oct-25 20:30N 33°45' W 118°13'0 0.0
2017-Oct-25 20:00N 33°45' W 118°13'0 0.0
2017-Oct-25 19:31N 33°45' W 118°13'0 0.0
2017-Oct-25 19:01N 33°45' W 118°13'0 0.0
2017-Oct-25 18:30N 33°45' W 118°13'0 0.0
2017-Oct-25 18:01N 33°45' W 118°13'0 0.0
2017-Oct-25 17:26N 33°45' W 118°13'2 5.1
2017-Oct-25 17:00N 33°43' W 118°11'2 4.2
2017-Oct-25 16:30N 33°45' W 118°13'0 0.0
2017-Oct-25 16:00N 33°45' W 118°13'1 2.6
2017-Oct-25 15:30N 33°44' W 118°13'1 2.6
2017-Oct-25 15:00N 33°45' W 118°13'2 3.6
2017-Oct-25 14:30N 33°44' W 118°11'2 3.7
2017-Oct-25 14:01N 33°45' W 118°13'0 0.0
2017-Oct-25 01:18N 33°45' W 118°13'0 0.0
2017-Oct-25 00:59N 33°45' W 118°13'0 0.0
2017-Oct-25 00:30N 33°45' W 118°13'0 0.0
2017-Oct-25 00:00N 33°45' W 118°13'0 0.0
2017-Oct-24 22:42N 33°45' W 118°13'0 0.0
2017-Oct-24 22:30N 33°45' W 118°13'0 0.0
2017-Oct-24 22:00N 33°45' W 118°13'0 0.0
2017-Oct-24 21:18N 33°45' W 118°13'0 0.0
2017-Oct-24 20:56N 33°45' W 118°13'0 0.0
2017-Oct-24 20:30N 33°45' W 118°13'0 0.0
2017-Oct-24 20:00N 33°45' W 118°13'0 0.0
2017-Oct-24 19:30N 33°45' W 118°13'0 0.0
2017-Oct-24 19:00N 33°45' W 118°13'0 0.0
2017-Oct-24 18:30N 33°45' W 118°13'0 0.0
2017-Oct-24 17:57N 33°45' W 118°13'0 0.0
2017-Oct-24 17:17N 33°45' W 118°13'0 0.0
2017-Oct-24 17:00N 33°45' W 118°13'0 0.0
2017-Oct-24 15:03N 33°45' W 118°13'0 0.0
2017-Oct-24 15:00N 33°45' W 118°13'0 0.0
2017-Oct-24 14:30N 33°45' W 118°13'0 0.0
2017-Oct-24 14:00N 33°45' W 118°13'0 0.0
2017-Oct-24 01:09N 33°45' W 118°13'0 0.0
2017-Oct-24 01:00N 33°45' W 118°13'0 0.0
2017-Oct-24 00:30N 33°45' W 118°13'0 0.0
2017-Oct-23 23:55N 33°45' W 118°13'0 0.0
2017-Oct-23 22:18N 33°45' W 118°13'0 0.0
2017-Oct-23 22:00N 33°45' W 118°13'0 0.0
2017-Oct-23 21:03N 33°45' W 118°13'0 0.0
2017-Oct-23 21:00N 33°45' W 118°13'0 0.0
2017-Oct-23 20:29N 33°45' W 118°13'0 0.0
2017-Oct-23 18:45N 33°45' W 118°13'0 0.0
2017-Oct-23 18:23N 33°45' W 118°13'0 0.0
2017-Oct-23 17:57N 33°45' W 118°13'0 0.0
2017-Oct-23 17:29N 33°45' W 118°13'0 0.0
2017-Oct-23 17:00N 33°45' W 118°13'0 0.0
2017-Oct-23 16:30N 33°45' W 118°13'0 0.0
2017-Oct-23 16:00N 33°45' W 118°13'0 0.0
2017-Oct-23 15:22N 33°45' W 118°13'0 0.0
2017-Oct-23 15:00N 33°45' W 118°13'0 0.0
2017-Oct-23 01:34N 33°45' W 118°13'1 3.6
2017-Oct-23 01:20N 33°45' W 118°12'1 4.5
2017-Oct-23 01:00N 33°44' W 118°11'2 3.9
2017-Oct-23 00:26N 33°45' W 118°13'0 0.0
2017-Oct-23 00:00N 33°45' W 118°13'0 0.0
2017-Oct-22 23:30N 33°45' W 118°13'0 0.0
2017-Oct-22 22:37N 33°45' W 118°13'0 0.0
2017-Oct-22 22:27N 33°45' W 118°13'0 0.0
2017-Oct-22 21:23N 33°45' W 118°13'0 0.0
2017-Oct-22 20:37N 33°45' W 118°13'0 0.0
2017-Oct-22 20:29N 33°45' W 118°13'0 0.0
2017-Oct-22 17:48N 33°45' W 118°13'0 0.0
2017-Oct-22 17:28N 33°45' W 118°13'0 0.0
2017-Oct-22 16:39N 33°45' W 118°13'0 0.0
2017-Oct-22 16:04N 33°45' W 118°13'0 0.0
2017-Oct-22 15:59N 33°45' W 118°13'0 0.0
2017-Oct-22 15:30N 33°45' W 118°13'0 0.0
2017-Oct-22 14:52N 33°45' W 118°13'0 0.0
2017-Oct-22 14:30N 33°45' W 118°13'1 0.0
2017-Oct-22 00:53N 33°44' W 118°13'1 2.6
2017-Oct-22 00:30N 33°44' W 118°12'0 0.3
2017-Oct-21 23:54N 33°44' W 118°11'2 3.8
2017-Oct-21 23:26N 33°45' W 118°13'0 0.0
2017-Oct-21 22:59N 33°45' W 118°13'0 0.0
2017-Oct-21 22:27N 33°45' W 118°13'0 0.0
2017-Oct-21 21:59N 33°45' W 118°13'4 8.3
2017-Oct-21 21:30N 33°41' W 118°11'4 7.8
2017-Oct-21 21:00N 33°45' W 118°13'0 0.0
2017-Oct-21 20:25N 33°45' W 118°13'0 0.0
2017-Oct-21 19:59N 33°45' W 118°13'0 0.0
2017-Oct-21 19:30N 33°45' W 118°13'0 0.0
2017-Oct-21 19:00N 33°45' W 118°13'0 0.0
2017-Oct-21 18:31N 33°45' W 118°13'0 0.0
2017-Oct-21 18:00N 33°45' W 118°13'0 0.0
2017-Oct-21 17:30N 33°45' W 118°13'0 0.0
2017-Oct-21 16:56N 33°45' W 118°13'0 0.0
2017-Oct-21 16:30N 33°45' W 118°13'0 0.0
2017-Oct-21 16:01N 33°45' W 118°13'4 6.5
2017-Oct-21 15:24N 33°41' W 118°11'4 9.9
2017-Oct-21 15:00N 33°45' W 118°13'0 0.0
2017-Oct-21 14:29N 33°45' W 118°13'1 0.1
2017-Oct-21 01:21N 33°44' W 118°12'0 0.9
2017-Oct-21 00:57N 33°44' W 118°12'1 2.7
2017-Oct-21 00:31N 33°44' W 118°11'2 3.6
2017-Oct-21 00:00N 33°45' W 118°13'0 0.0
2017-Oct-20 23:30N 33°45' W 118°13'0 0.0
2017-Oct-20 22:24N 33°45' W 118°13'0 0.0
2017-Oct-20 21:58N 33°45' W 118°13'0 0.0
2017-Oct-20 21:29N 33°45' W 118°13'0 0.0
2017-Oct-20 20:56N 33°45' W 118°13'0 0.0
2017-Oct-20 20:30N 33°45' W 118°13'0 0.0
2017-Oct-20 19:58N 33°45' W 118°13'0 0.0
2017-Oct-20 19:29N 33°45' W 118°13'2 4.6
2017-Oct-20 19:00N 33°43' W 118°11'2 4.3
2017-Oct-20 18:29N 33°45' W 118°13'0 0.0
2017-Oct-20 18:00N 33°45' W 118°13'1 2.4
2017-Oct-20 17:30N 33°46' W 118°13'1 1.0
2017-Oct-20 16:20N 33°45' W 118°13'0 0.0
2017-Oct-20 15:56N 33°45' W 118°13'3 6.2
2017-Oct-20 15:30N 33°44' W 118°16'1 2.7
2017-Oct-20 15:00N 33°43' W 118°15'4 0.3
2017-Oct-20 01:09N 33°44' W 118°11'0 2.3
2017-Oct-20 01:00N 33°44' W 118°11'2 3.7
2017-Oct-20 00:26N 33°42' W 118°12'3 6.0
2017-Oct-20 00:00N 33°44' W 118°09'3 6.3
2017-Oct-19 23:30N 33°45' W 118°13'0 0.0
2017-Oct-19 22:58N 33°45' W 118°13'0 0.0
2017-Oct-19 22:30N 33°45' W 118°13'0 0.0
2017-Oct-19 22:00N 33°45' W 118°13'0 0.0
2017-Oct-19 21:30N 33°45' W 118°13'0 0.0
2017-Oct-19 21:00N 33°45' W 118°13'0 0.0
2017-Oct-19 20:30N 33°45' W 118°13'0 0.0
2017-Oct-19 18:53N 33°45' W 118°13'0 0.0
2017-Oct-19 17:48N 33°45' W 118°13'0 0.0
2017-Oct-19 17:21N 33°45' W 118°13'0 0.0
2017-Oct-19 15:48N 33°45' W 118°13'0 0.0
2017-Oct-19 15:17N 33°45' W 118°13'0 0.0
2017-Oct-19 14:45N 33°45' W 118°13'0 0.0
2017-Oct-19 01:16N 33°45' W 118°13'0 0.0
2017-Oct-19 00:59N 33°45' W 118°13'0 0.0
2017-Oct-18 23:03N 33°45' W 118°13'0 0.0
2017-Oct-18 22:42N 33°45' W 118°13'0 0.0
2017-Oct-18 22:11N 33°45' W 118°13'212.3
2017-Oct-18 22:00N 33°43' W 118°11'0 0.6
2017-Oct-18 21:30N 33°44' W 118°11'0 0.1
2017-Oct-18 21:00N 33°44' W 118°11'1 1.6
2017-Oct-18 20:30N 33°44' W 118°12'1 1.0
2017-Oct-18 19:22N 33°45' W 118°13'0 0.0
2017-Oct-18 19:00N 33°45' W 118°13'0 0.0
2017-Oct-18 18:25N 33°45' W 118°13'0 0.0
2017-Oct-18 17:56N 33°45' W 118°13'0 0.0
2017-Oct-18 17:30N 33°45' W 118°13'0 0.0
2017-Oct-18 15:21N 33°45' W 118°13'0 0.0
2017-Oct-18 14:56N 33°45' W 118°13'0 0.0
2017-Oct-18 14:00N 33°45' W 118°13'0 0.0
2017-Oct-18 01:02N 33°45' W 118°13'0 0.0
2017-Oct-18 00:58N 33°45' W 118°13'  
Track history (hours):
 
Tides and Currents Weather Stations Pressure Air Temp Water Temp Dewpoint Dewpoint Depression Visibility Wind Speed Wind Dir Waves Ship Positions

Pilot Boat Vega

Last reported at 2017-Oct-28 00:39 UTC. Time now 2017-Nov-18 01:11 UTC.
Position N 33°45' W 118°13'.
Warning: this ship's position is 21 days out of date.

Length 16 m; draft 1.5 m.

Type: Pilot. MMSI: 338037843.

Date/timePositionNaut miles runAvg speedWind from/ knotsBaromVisibWave heightAir tempDewpointWater temp
2017-Oct-28 00:39N 33°45' W 118°13'0 0.0
2017-Oct-27 21:42N 33°45' W 118°13'0 0.0
2017-Oct-27 21:31N 33°45' W 118°13'0 0.0
2017-Oct-27 20:59N 33°45' W 118°13'0 0.0
2017-Oct-27 20:29N 33°45' W 118°13'0 0.0
2017-Oct-27 19:52N 33°45' W 118°13'0 0.0
2017-Oct-27 19:30N 33°45' W 118°13'0 0.0
2017-Oct-27 19:00N 33°45' W 118°13'0 0.0
2017-Oct-27 18:30N 33°45' W 118°13'0 0.0
2017-Oct-27 17:52N 33°45' W 118°13'0 0.0
2017-Oct-27 17:30N 33°45' W 118°13'0 0.0
2017-Oct-27 16:59N 33°45' W 118°13'3 6.4
2017-Oct-27 16:29N 33°42' W 118°11'3 6.8
2017-Oct-27 16:00N 33°45' W 118°13'3 3.6
2017-Oct-27 15:17N 33°43' W 118°11'0 1.4
2017-Oct-27 15:01N 33°43' W 118°11'2 4.9
2017-Oct-27 14:30N 33°45' W 118°13'0 0.0
2017-Oct-27 00:46N 33°45' W 118°13'0 0.0
2017-Oct-27 00:27N 33°45' W 118°13'0 0.0
2017-Oct-26 23:57N 33°45' W 118°13'0 0.0
2017-Oct-26 22:59N 33°45' W 118°13'0 0.0
2017-Oct-26 22:23N 33°45' W 118°13'0 0.0
2017-Oct-26 22:00N 33°45' W 118°13'0 0.0
2017-Oct-26 21:30N 33°45' W 118°13'0 0.0
2017-Oct-26 20:59N 33°45' W 118°13'0 0.0
2017-Oct-26 20:30N 33°45' W 118°13'0 0.0
2017-Oct-26 20:00N 33°45' W 118°13'2 4.3
2017-Oct-26 19:30N 33°43' W 118°11'1 2.1
2017-Oct-26 18:57N 33°43' W 118°12'3 6.2
2017-Oct-26 18:31N 33°43' W 118°16'1 1.7
2017-Oct-26 18:00N 33°44' W 118°16'3 4.0
2017-Oct-26 17:19N 33°45' W 118°13'0 0.0
2017-Oct-26 17:00N 33°45' W 118°13'0 0.0
2017-Oct-26 14:49N 33°45' W 118°13'0 0.0
2017-Oct-26 14:29N 33°45' W 118°13'0 0.0
2017-Oct-26 01:17N 33°45' W 118°13'0 0.0
2017-Oct-26 00:54N 33°45' W 118°13'0 0.0
2017-Oct-26 00:31N 33°45' W 118°13'0 0.0
2017-Oct-26 00:01N 33°45' W 118°13'0 0.0
2017-Oct-25 23:31N 33°45' W 118°13'0 0.0
2017-Oct-25 23:01N 33°45' W 118°13'0 0.0
2017-Oct-25 22:31N 33°45' W 118°13'0 0.0
2017-Oct-25 22:00N 33°45' W 118°13'0 0.0
2017-Oct-25 21:31N 33°45' W 118°13'0 0.0
2017-Oct-25 20:39N 33°45' W 118°13'0 0.0
2017-Oct-25 20:30N 33°45' W 118°13'0 0.0
2017-Oct-25 20:00N 33°45' W 118°13'0 0.0
2017-Oct-25 19:31N 33°45' W 118°13'0 0.0
2017-Oct-25 19:01N 33°45' W 118°13'0 0.0
2017-Oct-25 18:30N 33°45' W 118°13'0 0.0
2017-Oct-25 18:01N 33°45' W 118°13'0 0.0
2017-Oct-25 17:26N 33°45' W 118°13'2 5.1
2017-Oct-25 17:00N 33°43' W 118°11'2 4.2
2017-Oct-25 16:30N 33°45' W 118°13'0 0.0
2017-Oct-25 16:00N 33°45' W 118°13'1 2.6
2017-Oct-25 15:30N 33°44' W 118°13'1 2.6
2017-Oct-25 15:00N 33°45' W 118°13'2 3.6
2017-Oct-25 14:30N 33°44' W 118°11'2 3.7
2017-Oct-25 14:01N 33°45' W 118°13'0 0.0
2017-Oct-25 01:18N 33°45' W 118°13'0 0.0
2017-Oct-25 00:59N 33°45' W 118°13'0 0.0
2017-Oct-25 00:30N 33°45' W 118°13'0 0.0
2017-Oct-25 00:00N 33°45' W 118°13'0 0.0
2017-Oct-24 22:42N 33°45' W 118°13'0 0.0
2017-Oct-24 22:30N 33°45' W 118°13'0 0.0
2017-Oct-24 22:00N 33°45' W 118°13'0 0.0
2017-Oct-24 21:18N 33°45' W 118°13'0 0.0
2017-Oct-24 20:56N 33°45' W 118°13'0 0.0
2017-Oct-24 20:30N 33°45' W 118°13'0 0.0
2017-Oct-24 20:00N 33°45' W 118°13'0 0.0
2017-Oct-24 19:30N 33°45' W 118°13'0 0.0
2017-Oct-24 19:00N 33°45' W 118°13'0 0.0
2017-Oct-24 18:30N 33°45' W 118°13'0 0.0
2017-Oct-24 17:57N 33°45' W 118°13'0 0.0
2017-Oct-24 17:17N 33°45' W 118°13'0 0.0
2017-Oct-24 17:00N 33°45' W 118°13'0 0.0
2017-Oct-24 15:03N 33°45' W 118°13'0 0.0
2017-Oct-24 15:00N 33°45' W 118°13'0 0.0
2017-Oct-24 14:30N 33°45' W 118°13'0 0.0
2017-Oct-24 14:00N 33°45' W 118°13'0 0.0
2017-Oct-24 01:09N 33°45' W 118°13'0 0.0
2017-Oct-24 01:00N 33°45' W 118°13'0 0.0
2017-Oct-24 00:30N 33°45' W 118°13'0 0.0
2017-Oct-23 23:55N 33°45' W 118°13'0 0.0
2017-Oct-23 22:18N 33°45' W 118°13'0 0.0
2017-Oct-23 22:00N 33°45' W 118°13'0 0.0
2017-Oct-23 21:03N 33°45' W 118°13'0 0.0
2017-Oct-23 21:00N 33°45' W 118°13'0 0.0
2017-Oct-23 20:29N 33°45' W 118°13'0 0.0
2017-Oct-23 18:45N 33°45' W 118°13'0 0.0
2017-Oct-23 18:23N 33°45' W 118°13'0 0.0
2017-Oct-23 17:57N 33°45' W 118°13'0 0.0
2017-Oct-23 17:29N 33°45' W 118°13'0 0.0
2017-Oct-23 17:00N 33°45' W 118°13'0 0.0
2017-Oct-23 16:30N 33°45' W 118°13'0 0.0
2017-Oct-23 16:00N 33°45' W 118°13'0 0.0
2017-Oct-23 15:22N 33°45' W 118°13'0 0.0
2017-Oct-23 15:00N 33°45' W 118°13'0 0.0
2017-Oct-23 01:34N 33°45' W 118°13'1 3.6
2017-Oct-23 01:20N 33°45' W 118°12'1 4.5
2017-Oct-23 01:00N 33°44' W 118°11'2 3.9
2017-Oct-23 00:26N 33°45' W 118°13'0 0.0
2017-Oct-23 00:00N 33°45' W 118°13'0 0.0
2017-Oct-22 23:30N 33°45' W 118°13'0 0.0
2017-Oct-22 22:37N 33°45' W 118°13'0 0.0
2017-Oct-22 22:27N 33°45' W 118°13'0 0.0
2017-Oct-22 21:23N 33°45' W 118°13'0 0.0
2017-Oct-22 20:37N 33°45' W 118°13'0 0.0
2017-Oct-22 20:29N 33°45' W 118°13'0 0.0
2017-Oct-22 17:48N 33°45' W 118°13'0 0.0
2017-Oct-22 17:28N 33°45' W 118°13'0 0.0
2017-Oct-22 16:39N 33°45' W 118°13'0 0.0
2017-Oct-22 16:04N 33°45' W 118°13'0 0.0
2017-Oct-22 15:59N 33°45' W 118°13'0 0.0
2017-Oct-22 15:30N 33°45' W 118°13'0 0.0
2017-Oct-22 14:52N 33°45' W 118°13'0 0.0
2017-Oct-22 14:30N 33°45' W 118°13'1 0.0
2017-Oct-22 00:53N 33°44' W 118°13'1 2.6
2017-Oct-22 00:30N 33°44' W 118°12'0 0.3
2017-Oct-21 23:54N 33°44' W 118°11'2 3.8
2017-Oct-21 23:26N 33°45' W 118°13'0 0.0
2017-Oct-21 22:59N 33°45' W 118°13'0 0.0
2017-Oct-21 22:27N 33°45' W 118°13'0 0.0
2017-Oct-21 21:59N 33°45' W 118°13'4 8.3
2017-Oct-21 21:30N 33°41' W 118°11'4 7.8
2017-Oct-21 21:00N 33°45' W 118°13'0 0.0
2017-Oct-21 20:25N 33°45' W 118°13'0 0.0
2017-Oct-21 19:59N 33°45' W 118°13'0 0.0
2017-Oct-21 19:30N 33°45' W 118°13'0 0.0
2017-Oct-21 19:00N 33°45' W 118°13'0 0.0
2017-Oct-21 18:31N 33°45' W 118°13'0 0.0
2017-Oct-21 18:00N 33°45' W 118°13'0 0.0
2017-Oct-21 17:30N 33°45' W 118°13'0 0.0
2017-Oct-21 16:56N 33°45' W 118°13'0 0.0
2017-Oct-21 16:30N 33°45' W 118°13'0 0.0
2017-Oct-21 16:01N 33°45' W 118°13'4 6.5
2017-Oct-21 15:24N 33°41' W 118°11'4 9.9
2017-Oct-21 15:00N 33°45' W 118°13'0 0.0
2017-Oct-21 14:29N 33°45' W 118°13'1 0.1
2017-Oct-21 01:21N 33°44' W 118°12'0 0.9
2017-Oct-21 00:57N 33°44' W 118°12'1 2.7
2017-Oct-21 00:31N 33°44' W 118°11'2 3.6
2017-Oct-21 00:00N 33°45' W 118°13'0 0.0
2017-Oct-20 23:30N 33°45' W 118°13'0 0.0
2017-Oct-20 22:24N 33°45' W 118°13'0 0.0
2017-Oct-20 21:58N 33°45' W 118°13'0 0.0
2017-Oct-20 21:29N 33°45' W 118°13'0 0.0
2017-Oct-20 20:56N 33°45' W 118°13'0 0.0
2017-Oct-20 20:30N 33°45' W 118°13'0 0.0
2017-Oct-20 19:58N 33°45' W 118°13'0 0.0
2017-Oct-20 19:29N 33°45' W 118°13'2 4.6
2017-Oct-20 19:00N 33°43' W 118°11'2 4.3
2017-Oct-20 18:29N 33°45' W 118°13'0 0.0
2017-Oct-20 18:00N 33°45' W 118°13'1 2.4
2017-Oct-20 17:30N 33°46' W 118°13'1 1.0
2017-Oct-20 16:20N 33°45' W 118°13'0 0.0
2017-Oct-20 15:56N 33°45' W 118°13'3 6.2
2017-Oct-20 15:30N 33°44' W 118°16'1 2.7
2017-Oct-20 15:00N 33°43' W 118°15'4 0.3
2017-Oct-20 01:09N 33°44' W 118°11'0 2.3
2017-Oct-20 01:00N 33°44' W 118°11'2 3.7
2017-Oct-20 00:26N 33°42' W 118°12'3 6.0
2017-Oct-20 00:00N 33°44' W 118°09'3 6.3
2017-Oct-19 23:30N 33°45' W 118°13'0 0.0
2017-Oct-19 22:58N 33°45' W 118°13'0 0.0
2017-Oct-19 22:30N 33°45' W 118°13'0 0.0
2017-Oct-19 22:00N 33°45' W 118°13'0 0.0
2017-Oct-19 21:30N 33°45' W 118°13'0 0.0
2017-Oct-19 21:00N 33°45' W 118°13'0 0.0
2017-Oct-19 20:30N 33°45' W 118°13'0 0.0
2017-Oct-19 18:53N 33°45' W 118°13'0 0.0
2017-Oct-19 17:48N 33°45' W 118°13'0 0.0
2017-Oct-19 17:21N 33°45' W 118°13'0 0.0
2017-Oct-19 15:48N 33°45' W 118°13'0 0.0
2017-Oct-19 15:17N 33°45' W 118°13'0 0.0
2017-Oct-19 14:45N 33°45' W 118°13'0 0.0
2017-Oct-19 01:16N 33°45' W 118°13'0 0.0
2017-Oct-19 00:59N 33°45' W 118°13'0 0.0
2017-Oct-18 23:03N 33°45' W 118°13'0 0.0
2017-Oct-18 22:42N 33°45' W 118°13'0 0.0
2017-Oct-18 22:11N 33°45' W 118°13'212.3
2017-Oct-18 22:00N 33°43' W 118°11'0 0.6
2017-Oct-18 21:30N 33°44' W 118°11'0 0.1
2017-Oct-18 21:00N 33°44' W 118°11'1 1.6
2017-Oct-18 20:30N 33°44' W 118°12'1 1.0
2017-Oct-18 19:22N 33°45' W 118°13'0 0.0
2017-Oct-18 19:00N 33°45' W 118°13'0 0.0
2017-Oct-18 18:25N 33°45' W 118°13'0 0.0
2017-Oct-18 17:56N 33°45' W 118°13'0 0.0
2017-Oct-18 17:30N 33°45' W 118°13'0 0.0
2017-Oct-18 15:21N 33°45' W 118°13'0 0.0
2017-Oct-18 14:56N 33°45' W 118°13'0 0.0
2017-Oct-18 14:00N 33°45' W 118°13'0 0.0
2017-Oct-18 01:02N 33°45' W 118°13'0 0.0
2017-Oct-18 00:58N 33°45' W 118°13'  

Dump ship's entire track history